createdAt,value
2023-04-24T00:02:25.387Z,18.95
2023-04-24T00:04:52.200Z,18.93
2023-04-24T00:07:18.707Z,18.90
2023-04-24T00:09:45.316Z,18.88
2023-04-24T00:12:12.154Z,18.87
2023-04-24T00:14:39.238Z,18.85
2023-04-24T00:17:05.745Z,18.84
2023-04-24T00:19:33.477Z,18.84
2023-04-24T00:21:59.967Z,18.83
2023-04-24T00:24:26.371Z,18.82
2023-04-24T00:26:52.971Z,18.82
2023-04-24T00:29:19.576Z,18.80
2023-04-24T00:31:46.431Z,18.78
2023-04-24T00:34:13.530Z,18.78
2023-04-24T00:36:40.313Z,18.74
2023-04-24T00:39:06.744Z,18.73
2023-04-24T00:41:33.545Z,18.69
2023-04-24T00:43:59.871Z,18.67
2023-04-24T00:46:26.297Z,18.65
2023-04-24T00:48:52.854Z,18.64
2023-04-24T00:51:19.721Z,18.61
2023-04-24T00:53:46.405Z,18.62
2023-04-24T00:56:14.121Z,18.62
2023-04-24T00:58:41.306Z,18.60
2023-04-24T01:01:08.425Z,18.58
2023-04-24T01:03:38.332Z,18.54
2023-04-24T01:06:06.119Z,18.52
2023-04-24T01:08:33.389Z,18.49
2023-04-24T01:11:00.094Z,18.50
2023-04-24T01:13:26.570Z,18.48
2023-04-24T01:15:52.970Z,18.45
2023-04-24T01:18:19.703Z,18.45
2023-04-24T01:20:47.803Z,18.42
2023-04-24T01:23:14.386Z,18.43
2023-04-24T01:25:41.197Z,18.43
2023-04-24T01:28:07.916Z,18.42
2023-04-24T01:30:34.681Z,18.40
2023-04-24T01:33:02.102Z,18.37
2023-04-24T01:35:28.652Z,18.35
2023-04-24T01:37:55.311Z,18.33
2023-04-24T01:40:22.200Z,18.30
2023-04-24T01:42:48.856Z,18.27
2023-04-24T01:45:15.270Z,18.21
2023-04-24T01:47:42.461Z,18.18
2023-04-24T01:50:09.592Z,18.16
2023-04-24T01:52:37.110Z,18.14
2023-04-24T01:55:05.388Z,18.10
2023-04-24T01:57:32.672Z,18.12
2023-04-24T01:59:59.333Z,18.12
2023-04-24T02:02:28.418Z,18.13
2023-04-24T02:04:55.352Z,18.15
2023-04-24T02:07:21.789Z,18.16
2023-04-24T02:09:48.529Z,18.18
2023-04-24T02:12:16.226Z,18.19
2023-04-24T02:14:43.413Z,18.20
2023-04-24T02:17:10.422Z,18.20
2023-04-24T02:19:36.852Z,18.20
2023-04-24T02:22:03.268Z,18.20
2023-04-24T02:24:29.887Z,18.21
2023-04-24T02:26:56.974Z,18.21
2023-04-24T02:29:23.980Z,18.21
2023-04-24T02:31:50.655Z,18.19
2023-04-24T02:34:17.353Z,18.19
2023-04-24T02:36:43.749Z,18.18
2023-04-24T02:39:10.705Z,18.18
2023-04-24T02:41:37.343Z,18.19
2023-04-24T02:44:03.714Z,18.19
2023-04-24T02:46:31.119Z,18.20
2023-04-24T02:48:57.501Z,18.21
2023-04-24T02:51:24.089Z,18.20
2023-04-24T02:53:50.481Z,18.19
2023-04-24T02:56:16.829Z,18.18
2023-04-24T02:58:43.461Z,18.15
2023-04-24T03:01:11.290Z,18.12
2023-04-24T03:03:39.864Z,18.11
2023-04-24T03:06:06.962Z,18.10
2023-04-24T03:08:33.360Z,18.12
2023-04-24T03:10:59.937Z,18.08
2023-04-24T03:13:26.404Z,18.03
2023-04-24T03:15:52.874Z,17.99
2023-04-24T03:18:19.374Z,17.93
2023-04-24T03:20:49.081Z,17.84
2023-04-24T03:23:16.168Z,17.80
2023-04-24T03:25:43.974Z,17.71
2023-04-24T03:28:10.633Z,17.65
2023-04-24T03:30:37.012Z,17.57
2023-04-24T03:33:03.712Z,17.50
2023-04-24T03:35:30.404Z,17.43
2023-04-24T03:37:56.801Z,17.36
2023-04-24T03:40:23.405Z,17.30
2023-04-24T03:42:49.776Z,17.25
2023-04-24T03:45:16.545Z,17.20
2023-04-24T03:47:43.185Z,17.18
2023-04-24T03:50:12.440Z,17.15
2023-04-24T03:52:39.342Z,17.13
2023-04-24T03:55:07.354Z,17.13
2023-04-24T03:57:33.962Z,17.12
2023-04-24T04:00:00.835Z,17.12
2023-04-24T04:02:27.287Z,17.14
2023-04-24T04:04:53.948Z,17.13
2023-04-24T04:07:20.455Z,17.15
2023-04-24T04:09:46.810Z,17.14
2023-04-24T04:12:13.719Z,17.15
2023-04-24T04:14:40.168Z,17.13
2023-04-24T04:17:06.515Z,17.13
2023-04-24T04:19:32.847Z,17.14
2023-04-24T04:22:00.062Z,17.12
2023-04-24T04:24:27.406Z,17.11
2023-04-24T04:26:57.569Z,17.13
2023-04-24T04:29:24.809Z,17.14
2023-04-24T04:31:51.291Z,17.15
2023-04-24T04:34:17.724Z,17.15
2023-04-24T04:36:45.276Z,17.17
2023-04-24T04:39:11.648Z,17.19
2023-04-24T04:41:38.869Z,17.19
2023-04-24T04:44:05.467Z,17.20
2023-04-24T04:46:34.611Z,17.20
2023-04-24T04:49:02.612Z,17.20
2023-04-24T04:51:29.224Z,17.20
2023-04-24T04:53:55.753Z,17.19
2023-04-24T04:56:23.233Z,17.18
2023-04-24T04:58:49.630Z,17.18
2023-04-24T05:01:16.003Z,17.18
2023-04-24T05:03:42.568Z,17.18
2023-04-24T05:06:09.295Z,17.20
2023-04-24T05:08:35.679Z,17.20
2023-04-24T05:11:02.349Z,17.22
2023-04-24T05:13:39.113Z,17.25
2023-04-24T05:16:07.454Z,17.26
2023-04-24T05:18:33.975Z,17.27
2023-04-24T05:21:00.310Z,17.29
2023-04-24T05:23:26.790Z,17.29
2023-04-24T05:25:53.272Z,17.28
2023-04-24T05:28:19.678Z,17.28
2023-04-24T05:30:46.414Z,17.26
2023-04-24T05:33:12.910Z,17.23
2023-04-24T05:35:46.540Z,17.20
2023-04-24T05:38:13.737Z,17.19
2023-04-24T05:40:40.557Z,17.18
2023-04-24T05:43:06.901Z,17.17
2023-04-24T05:45:33.232Z,17.16
2023-04-24T05:47:59.839Z,17.14
2023-04-24T05:50:26.210Z,17.12
2023-04-24T05:52:52.570Z,17.10
2023-04-24T05:55:19.379Z,17.11
2023-04-24T05:57:46.749Z,17.11
2023-04-24T06:00:13.503Z,17.12
2023-04-24T06:02:40.368Z,17.12
2023-04-24T06:05:07.281Z,17.14
2023-04-24T06:07:33.725Z,17.15
2023-04-24T06:10:00.007Z,17.15
2023-04-24T06:12:26.978Z,17.14
2023-04-24T06:14:53.369Z,17.12
2023-04-24T06:17:20.170Z,17.13
2023-04-24T06:19:46.856Z,17.11
2023-04-24T06:22:13.316Z,17.13
2023-04-24T06:24:41.250Z,17.14
2023-04-24T06:27:08.124Z,17.15
2023-04-24T06:29:35.253Z,17.16
2023-04-24T06:32:01.772Z,17.15
2023-04-24T06:34:28.447Z,17.14
2023-04-24T06:36:56.113Z,17.12
2023-04-24T06:39:22.512Z,17.10
2023-04-24T06:41:48.959Z,17.10
2023-04-24T06:44:16.292Z,17.09
2023-04-24T06:46:43.068Z,17.09
2023-04-24T06:49:09.903Z,17.08
2023-04-24T06:51:36.481Z,17.08
2023-04-24T06:54:02.938Z,17.07
2023-04-24T06:56:30.501Z,17.06
2023-04-24T06:58:57.002Z,17.06
2023-04-24T07:01:23.428Z,17.05
2023-04-24T07:03:50.133Z,17.05
2023-04-24T07:06:19.746Z,17.04
2023-04-24T07:08:46.413Z,17.03
2023-04-24T07:11:12.912Z,17.01
2023-04-24T07:13:42.670Z,16.99
2023-04-24T07:16:09.889Z,16.98
2023-04-24T07:18:37.462Z,16.99
2023-04-24T07:21:04.147Z,17.00
2023-04-24T07:23:31.929Z,17.03
2023-04-24T07:25:59.365Z,17.06
2023-04-24T07:28:25.764Z,17.10
2023-04-24T07:30:54.850Z,17.14
2023-04-24T07:33:21.562Z,17.16
2023-04-24T07:35:47.988Z,17.18
2023-04-24T07:38:14.717Z,17.18
2023-04-24T07:40:41.067Z,17.15
2023-04-24T07:43:07.364Z,17.14
2023-04-24T07:45:37.008Z,17.14
2023-04-24T07:48:03.570Z,17.10
2023-04-24T07:50:30.285Z,17.07
2023-04-24T07:52:56.708Z,17.05
2023-04-24T07:55:24.767Z,17.04
2023-04-24T07:57:52.866Z,17.03
2023-04-24T08:00:19.727Z,17.03
2023-04-24T08:02:46.529Z,17.03
2023-04-24T08:05:13.397Z,17.02
2023-04-24T08:07:39.993Z,17.01
2023-04-24T08:10:07.081Z,16.98
2023-04-24T08:12:33.434Z,16.96
2023-04-24T08:14:59.895Z,16.95
2023-04-24T08:17:27.093Z,16.95
2023-04-24T08:20:02.127Z,16.94
2023-04-24T08:22:29.430Z,16.95
2023-04-24T08:24:58.273Z,16.94
2023-04-24T08:27:25.061Z,16.93
2023-04-24T08:29:51.568Z,16.93
2023-04-24T08:32:18.187Z,16.94
2023-04-24T08:34:44.867Z,16.95
2023-04-24T08:37:12.040Z,16.96
2023-04-24T08:39:38.861Z,16.95
2023-04-24T08:42:09.323Z,16.94
2023-04-24T08:44:37.210Z,16.94
2023-04-24T08:47:04.198Z,16.93
2023-04-24T08:49:31.410Z,16.90
2023-04-24T08:51:58.067Z,16.89
2023-04-24T08:54:26.396Z,16.84
2023-04-24T08:56:55.347Z,16.83
2023-04-24T08:59:22.918Z,16.78
2023-04-24T09:01:52.568Z,16.76
2023-04-24T09:04:22.958Z,16.70
2023-04-24T09:06:56.846Z,16.67
2023-04-24T09:09:24.129Z,16.65
2023-04-24T09:11:51.974Z,16.60
2023-04-24T09:14:18.858Z,16.57
2023-04-24T09:16:45.948Z,16.53
2023-04-24T09:19:12.593Z,16.51
2023-04-24T09:21:44.308Z,16.47
2023-04-24T09:24:25.676Z,16.42
2023-04-24T09:27:00.097Z,16.41
2023-04-24T09:29:27.317Z,16.43
2023-04-24T09:31:54.709Z,16.40
2023-04-24T09:34:27.410Z,16.37
2023-04-24T09:36:55.559Z,16.38
2023-04-24T09:39:21.997Z,16.35
2023-04-24T09:41:55.409Z,16.33
2023-04-24T09:44:31.405Z,16.33
2023-04-24T09:47:00.170Z,16.29
2023-04-24T09:49:40.434Z,16.26
2023-04-24T09:52:10.161Z,16.24
2023-04-24T09:54:40.086Z,16.23
2023-04-24T09:57:09.024Z,16.18
2023-04-24T09:59:43.421Z,16.16
2023-04-24T10:02:20.755Z,16.13
2023-04-24T10:05:00.056Z,16.10
2023-04-24T10:07:27.422Z,16.11
2023-04-24T10:09:54.461Z,16.11
2023-04-24T10:12:21.833Z,16.11
2023-04-24T10:14:50.993Z,16.08
2023-04-24T10:17:18.110Z,16.08
2023-04-24T10:19:45.365Z,16.07
2023-04-24T10:22:12.553Z,16.07
2023-04-24T10:24:39.457Z,16.06
2023-04-24T10:27:06.939Z,16.08
2023-04-24T10:29:36.613Z,16.11
2023-04-24T10:32:03.193Z,16.12
2023-04-24T10:34:30.588Z,16.13
2023-04-24T10:36:58.436Z,16.13
2023-04-24T10:39:27.951Z,16.12
2023-04-24T10:41:58.589Z,16.08
2023-04-24T10:44:25.516Z,16.04
2023-04-24T10:46:56.406Z,15.97
2023-04-24T10:49:30.930Z,15.88
2023-04-24T10:52:03.314Z,15.81
2023-04-24T10:54:35.023Z,15.75
2023-04-24T10:57:20.450Z,15.64
2023-04-24T10:59:47.910Z,15.62
2023-04-24T11:02:18.886Z,15.55
2023-04-24T11:04:48.737Z,15.50
2023-04-24T11:07:15.760Z,15.44
2023-04-24T11:09:43.884Z,15.39
2023-04-24T11:12:12.048Z,15.36
2023-04-24T11:14:59.176Z,15.33
2023-04-24T11:17:38.672Z,15.30
2023-04-24T11:22:58.643Z,15.31
2023-04-24T11:25:25.818Z,15.32
2023-04-24T11:28:04.793Z,15.28
2023-04-24T11:30:32.462Z,15.30
2023-04-24T11:33:04.075Z,15.28
2023-04-24T11:35:31.744Z,15.31
2023-04-24T11:40:28.689Z,15.34
2023-04-24T11:43:00.546Z,15.35
2023-04-24T11:45:31.684Z,15.35
2023-04-24T11:47:59.819Z,15.37
2023-04-24T11:50:30.294Z,15.38
2023-04-24T11:52:57.152Z,15.37
2023-04-24T11:55:23.866Z,15.36
2023-04-24T11:57:51.964Z,15.35
2023-04-24T12:00:21.460Z,15.36
2023-04-24T12:02:52.379Z,15.38
2023-04-24T12:05:28.927Z,15.39
2023-04-24T12:07:55.518Z,15.45
2023-04-24T12:10:27.880Z,15.47
2023-04-24T12:12:56.317Z,15.51
2023-04-24T12:15:23.829Z,15.54
2023-04-24T12:17:52.953Z,15.54
2023-04-24T12:20:31.878Z,15.55
2023-04-24T12:23:00.604Z,15.57
2023-04-24T12:25:32.277Z,15.59
2023-04-24T12:28:04.734Z,15.62
2023-04-24T12:30:45.953Z,15.64
2023-04-24T12:33:12.930Z,15.70
2023-04-24T12:35:42.228Z,15.73
2023-04-24T12:38:16.718Z,15.77
2023-04-24T12:40:44.632Z,15.83
2023-04-24T12:43:16.643Z,15.88
2023-04-24T12:45:43.194Z,15.94
2023-04-24T12:48:09.579Z,15.97
2023-04-24T12:50:36.017Z,15.98
2023-04-24T12:53:02.472Z,15.99
2023-04-24T12:55:28.809Z,16.02
2023-04-24T12:57:56.319Z,16.04
2023-04-24T13:00:23.158Z,16.10
2023-04-24T13:02:50.047Z,16.14
2023-04-24T13:05:16.914Z,16.17
2023-04-24T13:07:43.319Z,16.23
2023-04-24T13:10:10.532Z,16.26
2023-04-24T13:12:37.627Z,16.28
2023-04-24T13:15:04.548Z,16.29
2023-04-24T13:17:31.294Z,16.30
2023-04-24T13:19:57.955Z,16.29
2023-04-24T13:22:24.796Z,16.29
2023-04-24T13:24:51.308Z,16.30
2023-04-24T13:27:18.914Z,16.31
2023-04-24T13:29:47.284Z,16.32
2023-04-24T13:32:14.061Z,16.31
2023-04-24T13:34:40.472Z,16.32
2023-04-24T13:37:07.036Z,16.31
2023-04-24T13:39:33.725Z,16.29
2023-04-24T13:42:01.578Z,16.29
2023-04-24T13:44:31.168Z,16.27
2023-04-24T13:46:59.295Z,16.28
2023-04-24T13:49:27.303Z,16.27
2023-04-24T13:51:55.542Z,16.27
2023-04-24T13:54:23.279Z,16.29
2023-04-24T13:56:50.863Z,16.29
2023-04-24T13:59:17.485Z,16.32
2023-04-24T14:01:46.210Z,16.33
2023-04-24T14:04:13.402Z,16.33
2023-04-24T14:06:40.210Z,16.33
2023-04-24T14:09:07.984Z,16.33
2023-04-24T14:11:35.332Z,16.33
2023-04-24T14:14:01.878Z,16.34
2023-04-24T14:16:29.736Z,16.33
2023-04-24T14:18:57.344Z,16.33
2023-04-24T14:21:23.751Z,16.35
2023-04-24T14:23:50.184Z,16.37
2023-04-24T14:26:16.553Z,16.39
2023-04-24T14:28:43.180Z,16.41
2023-04-24T14:31:10.367Z,16.44
2023-04-24T14:33:36.979Z,16.50
2023-04-24T14:36:05.289Z,16.55
2023-04-24T14:38:32.458Z,16.61
2023-04-24T14:41:07.064Z,16.65
2023-04-24T14:43:36.204Z,16.68
2023-04-24T14:46:03.803Z,16.70
2023-04-24T14:48:30.348Z,16.72
2023-04-24T14:50:56.944Z,16.72
2023-04-24T14:53:23.562Z,16.74
2023-04-24T14:55:50.257Z,16.74
2023-04-24T14:58:16.691Z,16.79
2023-04-24T15:00:43.110Z,16.81
2023-04-24T15:03:10.183Z,16.85
2023-04-24T15:05:37.594Z,16.88
2023-04-24T15:08:04.342Z,16.88
2023-04-24T15:10:30.871Z,16.87
2023-04-24T15:12:57.742Z,16.85
2023-04-24T15:15:24.387Z,16.83
2023-04-24T15:17:51.191Z,16.80
2023-04-24T15:20:18.881Z,16.75
2023-04-24T15:22:45.637Z,16.69
2023-04-24T15:25:12.223Z,16.60
2023-04-24T15:27:45.849Z,16.52
2023-04-24T15:30:13.710Z,16.45
2023-04-24T15:32:40.488Z,16.36
2023-04-24T15:35:08.998Z,16.31
2023-04-24T15:37:37.345Z,16.29
2023-04-24T15:40:06.452Z,16.27
2023-04-24T15:42:33.106Z,16.27
2023-04-24T15:44:59.642Z,16.27
2023-04-24T15:47:26.573Z,16.27
2023-04-24T15:49:54.435Z,16.28
2023-04-24T15:52:21.757Z,16.28
2023-04-24T15:54:48.182Z,16.32
2023-04-24T15:57:16.221Z,16.35
2023-04-24T15:59:42.815Z,16.38
2023-04-24T16:02:19.051Z,16.39
2023-04-24T16:04:51.389Z,16.44
2023-04-24T16:07:22.004Z,16.48
2023-04-24T16:09:48.593Z,16.50
2023-04-24T16:12:15.552Z,16.52
2023-04-24T16:14:42.133Z,16.52
2023-04-24T16:17:08.877Z,16.51
2023-04-24T16:19:35.505Z,16.52
2023-04-24T16:22:03.156Z,16.50
2023-04-24T16:24:30.252Z,16.51
2023-04-24T16:26:57.204Z,16.49
2023-04-24T16:29:25.330Z,16.45
2023-04-24T16:31:51.924Z,16.45
2023-04-24T16:34:18.518Z,16.44
2023-04-24T16:36:44.971Z,16.43
2023-04-24T16:39:12.983Z,16.43
2023-04-24T16:41:39.753Z,16.43
2023-04-24T16:44:06.324Z,16.44
2023-04-24T16:46:33.297Z,16.45
2023-04-24T16:49:00.209Z,16.47
2023-04-24T16:51:27.938Z,16.50
2023-04-24T16:53:54.616Z,16.55
2023-04-24T16:56:21.252Z,16.57
2023-04-24T16:58:47.926Z,16.61
2023-04-24T17:01:18.932Z,16.65
2023-04-24T17:03:47.236Z,16.66
2023-04-24T17:06:13.791Z,16.69
2023-04-24T17:08:40.553Z,16.70
2023-04-24T17:11:07.142Z,16.70
2023-04-24T17:13:33.648Z,16.69
2023-04-24T17:16:00.308Z,16.68
2023-04-24T17:18:27.708Z,16.65
2023-04-24T17:20:54.183Z,16.64
2023-04-24T17:23:20.792Z,16.62
2023-04-24T17:25:47.237Z,16.61
2023-04-24T17:28:25.805Z,16.57
2023-04-24T17:30:55.632Z,16.58
2023-04-24T17:33:22.257Z,16.57
2023-04-24T17:35:49.341Z,16.55
2023-04-24T17:38:16.454Z,16.53
2023-04-24T17:40:42.925Z,16.53
2023-04-24T17:43:09.509Z,16.53
2023-04-24T17:45:37.692Z,16.55
2023-04-24T17:48:04.724Z,16.56
2023-04-24T17:50:31.097Z,16.56
2023-04-24T17:52:57.768Z,16.56
2023-04-24T17:55:24.118Z,16.53
2023-04-24T17:57:52.092Z,16.52
2023-04-24T18:00:20.059Z,16.50
2023-04-24T18:02:46.640Z,16.48
2023-04-24T18:05:15.820Z,16.47
2023-04-24T18:07:42.474Z,16.44
2023-04-24T18:10:09.064Z,16.42
2023-04-24T18:12:35.699Z,16.41
2023-04-24T18:15:13.811Z,16.38
2023-04-24T18:17:41.147Z,16.38
2023-04-24T18:20:08.192Z,16.35
2023-04-24T18:22:37.923Z,16.33
2023-04-24T18:25:04.863Z,16.32
2023-04-24T18:27:31.708Z,16.30
2023-04-24T18:29:59.215Z,16.29
2023-04-24T18:32:26.571Z,16.26
2023-04-24T18:34:53.283Z,16.25
2023-04-24T18:37:20.004Z,16.22
2023-04-24T18:39:46.460Z,16.18
2023-04-24T18:42:12.830Z,16.16
2023-04-24T18:44:41.137Z,16.12
2023-04-24T18:47:08.394Z,16.10
2023-04-24T18:49:35.151Z,16.07
2023-04-24T18:52:01.952Z,16.04
2023-04-24T18:54:28.605Z,16.02
2023-04-24T18:56:56.660Z,15.99
2023-04-24T18:59:22.987Z,15.98
2023-04-24T19:01:49.448Z,15.94
2023-04-24T19:04:15.974Z,15.92
2023-04-24T19:06:42.739Z,15.89
2023-04-24T19:09:09.913Z,15.86
2023-04-24T19:11:36.516Z,15.82
2023-04-24T19:14:05.462Z,15.78
2023-04-24T19:16:32.555Z,15.74
2023-04-24T19:18:58.999Z,15.73
2023-04-24T19:21:26.052Z,15.68
2023-04-24T19:23:52.820Z,15.63
2023-04-24T19:26:19.204Z,15.59
2023-04-24T19:28:45.800Z,15.55
2023-04-24T19:31:12.199Z,15.52
2023-04-24T19:33:38.544Z,15.50
2023-04-24T19:36:05.781Z,15.47
2023-04-24T19:38:32.601Z,15.45
2023-04-24T19:40:58.952Z,15.45
2023-04-24T19:43:25.387Z,15.42
2023-04-24T19:45:51.852Z,15.40
2023-04-24T19:48:18.666Z,15.37
2023-04-24T19:50:48.049Z,15.36
2023-04-24T19:53:14.616Z,15.34
2023-04-24T19:55:41.159Z,15.32
2023-04-24T19:58:08.810Z,15.31
2023-04-24T20:00:35.537Z,15.29
2023-04-24T20:03:03.055Z,15.28
2023-04-24T20:05:29.896Z,15.27
2023-04-24T20:07:56.600Z,15.28
2023-04-24T20:10:23.137Z,15.27
2023-04-24T20:12:49.744Z,15.26
2023-04-24T20:15:16.464Z,15.25
2023-04-24T20:17:43.122Z,15.24
2023-04-24T20:20:10.143Z,15.23
2023-04-24T20:22:40.074Z,15.22
2023-04-24T20:25:11.434Z,15.20
2023-04-24T20:27:37.891Z,15.19
2023-04-24T20:30:04.935Z,15.16
2023-04-24T20:32:31.626Z,15.15
2023-04-24T20:34:58.679Z,15.15
2023-04-24T20:37:25.299Z,15.15
2023-04-24T20:39:52.130Z,15.15
2023-04-24T20:42:19.004Z,15.15
2023-04-24T20:44:45.892Z,15.14
2023-04-24T20:47:12.474Z,15.14
2023-04-24T20:49:38.922Z,15.13
2023-04-24T20:52:06.356Z,15.10
2023-04-24T20:54:32.939Z,15.08
2023-04-24T20:56:59.630Z,15.05
2023-04-24T20:59:26.248Z,15.03
2023-04-24T21:01:52.606Z,15.00
2023-04-24T21:04:19.006Z,14.97
2023-04-24T21:06:45.699Z,14.94
2023-04-24T21:09:12.297Z,14.91
2023-04-24T21:11:39.141Z,14.88
2023-04-24T21:14:05.644Z,14.85
2023-04-24T21:16:32.057Z,14.82
2023-04-24T21:18:58.456Z,14.80
2023-04-24T21:21:25.328Z,14.79
2023-04-24T21:23:51.998Z,14.79
2023-04-24T21:26:18.394Z,14.77
2023-04-24T21:28:44.884Z,14.76
2023-04-24T21:31:11.650Z,14.73
2023-04-24T21:33:38.658Z,14.71
2023-04-24T21:36:05.380Z,14.69
2023-04-24T21:38:32.097Z,14.68
2023-04-24T21:40:58.724Z,14.66
2023-04-24T21:43:33.735Z,14.65
2023-04-24T21:46:07.785Z,14.63
2023-04-24T21:48:34.248Z,14.61
2023-04-24T21:51:00.625Z,14.60
2023-04-24T21:53:29.393Z,14.58
2023-04-24T21:55:56.132Z,14.56
2023-04-24T21:58:23.033Z,14.55
2023-04-24T22:00:49.715Z,14.53
2023-04-24T22:03:17.095Z,14.50
2023-04-24T22:05:43.591Z,14.49
2023-04-24T22:08:10.708Z,14.46
2023-04-24T22:10:37.880Z,14.44
2023-04-24T22:13:04.299Z,14.42
2023-04-24T22:15:31.151Z,14.40
2023-04-24T22:17:57.666Z,14.38
2023-04-24T22:20:24.230Z,14.38
2023-04-24T22:22:50.837Z,14.35
2023-04-24T22:25:18.335Z,14.33
2023-04-24T22:27:44.701Z,14.31
2023-04-24T22:30:11.425Z,14.28
2023-04-24T22:32:38.591Z,14.24
2023-04-24T22:35:05.801Z,14.23
2023-04-24T22:37:32.185Z,14.19
2023-04-24T22:40:01.074Z,14.17
2023-04-24T22:42:29.302Z,14.14
2023-04-24T22:44:55.888Z,14.12
2023-04-24T22:47:22.634Z,14.09
2023-04-24T22:49:49.237Z,14.08
2023-04-24T22:52:17.245Z,14.08
2023-04-24T22:54:43.758Z,14.08
2023-04-24T22:57:12.485Z,14.07
2023-04-24T22:59:39.407Z,14.06
2023-04-24T23:02:05.912Z,14.05
2023-04-24T23:04:32.428Z,14.05
2023-04-24T23:06:58.866Z,14.06
2023-04-24T23:09:25.229Z,14.05
2023-04-24T23:11:51.882Z,14.05
2023-04-24T23:14:18.208Z,14.03
2023-04-24T23:16:46.067Z,14.03
2023-04-24T23:19:12.441Z,14.04
2023-04-24T23:21:38.821Z,14.05
2023-04-24T23:24:05.848Z,14.05
2023-04-24T23:26:32.263Z,14.05
2023-04-24T23:28:58.627Z,14.04
2023-04-24T23:31:25.137Z,14.04
2023-04-24T23:33:51.662Z,14.03
2023-04-24T23:36:18.212Z,14.02
2023-04-24T23:38:50.027Z,14.01
2023-04-24T23:41:17.248Z,14.01
2023-04-24T23:43:43.591Z,14.01
2023-04-24T23:46:10.066Z,14.00
2023-04-24T23:48:37.508Z,13.97
2023-04-24T23:51:04.013Z,13.96
2023-04-24T23:53:31.667Z,13.95
2023-04-24T23:55:58.037Z,13.95
2023-04-24T23:58:25.816Z,13.93
